createdAt,value
2023-04-02T00:00:48.171Z,94127.00
2023-04-02T00:01:48.307Z,94127.00
2023-04-02T00:02:48.298Z,94127.00
2023-04-02T00:03:48.356Z,94127.00
2023-04-02T00:04:48.328Z,94127.00
2023-04-02T00:05:48.339Z,94129.00
2023-04-02T00:06:48.401Z,94127.00
2023-04-02T00:07:48.454Z,94131.00
2023-04-02T00:08:48.465Z,94129.00
2023-04-02T00:09:48.517Z,94131.00
2023-04-02T00:10:48.558Z,94133.00
2023-04-02T00:11:48.664Z,94131.00
2023-04-02T00:12:48.747Z,94127.00
2023-04-02T00:13:48.715Z,94133.00
2023-04-02T00:14:48.738Z,94133.00
2023-04-02T00:15:48.761Z,94135.00
2023-04-02T00:16:48.809Z,94135.00
2023-04-02T00:17:48.900Z,94133.00
2023-04-02T00:18:48.888Z,94133.00
2023-04-02T00:19:48.907Z,94135.00
2023-04-02T00:20:48.952Z,94137.00
2023-04-02T00:21:48.964Z,94135.00
2023-04-02T00:22:49.036Z,94131.00
2023-04-02T00:23:49.080Z,94137.00
2023-04-02T00:24:49.077Z,94135.00
2023-04-02T00:25:49.246Z,94135.00
2023-04-02T00:26:49.201Z,94137.00
2023-04-02T00:27:49.207Z,94135.00
2023-04-02T00:28:49.261Z,94137.00
2023-04-02T00:29:49.250Z,94139.00
2023-04-02T00:30:49.335Z,94139.00
2023-04-02T00:31:49.398Z,94139.00
2023-04-02T00:32:49.422Z,94139.00
2023-04-02T00:33:49.473Z,94139.00
2023-04-02T00:34:49.482Z,94141.00
2023-04-02T00:35:49.538Z,94139.00
2023-04-02T00:36:49.652Z,94139.00
2023-04-02T00:37:49.611Z,94141.00
2023-04-02T00:38:49.625Z,94141.00
2023-04-02T00:39:49.661Z,94148.00
2023-04-02T00:40:49.700Z,94148.00
2023-04-02T00:41:49.761Z,94141.00
2023-04-02T00:42:49.793Z,94148.00
2023-04-02T00:43:49.821Z,94139.00
2023-04-02T00:44:49.888Z,94141.00
2023-04-02T00:45:49.940Z,94139.00
2023-04-02T00:46:50.043Z,94150.00
2023-04-02T00:47:49.977Z,94139.00
2023-04-02T00:48:50.014Z,94139.00
2023-04-02T00:49:50.074Z,94137.00
2023-04-02T00:50:50.100Z,94137.00
2023-04-02T00:51:50.156Z,94137.00
2023-04-02T00:52:50.186Z,94135.00
2023-04-02T00:53:50.222Z,94133.00
2023-04-02T00:54:50.264Z,94135.00
2023-04-02T00:55:50.344Z,94135.00
2023-04-02T00:56:50.398Z,94135.00
2023-04-02T00:57:50.362Z,94133.00
2023-04-02T00:58:50.402Z,94139.00
2023-04-02T00:59:50.436Z,94137.00
2023-04-02T01:00:50.501Z,94135.00
2023-04-02T01:01:50.622Z,94139.00
2023-04-02T01:02:50.692Z,94135.00
2023-04-02T01:03:50.724Z,94137.00
2023-04-02T01:04:50.683Z,94135.00
2023-04-02T01:05:50.681Z,94139.00
2023-04-02T01:06:50.746Z,94137.00
2023-04-02T01:07:50.758Z,94137.00
2023-04-02T01:08:50.847Z,94139.00
2023-04-02T01:09:50.898Z,94139.00
2023-04-02T01:10:50.901Z,94141.00
2023-04-02T01:11:50.927Z,94141.00
2023-04-02T01:12:50.975Z,94148.00
2023-04-02T01:13:51.044Z,94148.00
2023-04-02T01:14:51.088Z,94148.00
2023-04-02T01:15:51.210Z,94150.00
2023-04-02T01:16:51.167Z,94152.00
2023-04-02T01:17:51.253Z,94152.00
2023-04-02T01:18:51.287Z,94152.00
2023-04-02T01:19:51.323Z,94152.00
2023-04-02T01:20:51.332Z,94152.00
2023-04-02T01:21:51.368Z,94150.00
2023-04-02T01:22:51.447Z,94152.00
2023-04-02T01:23:51.525Z,94154.00
2023-04-02T01:24:51.537Z,94152.00
2023-04-02T01:25:51.636Z,94154.00
2023-04-02T01:26:51.625Z,94154.00
2023-04-02T01:27:51.658Z,94152.00
2023-04-02T01:28:51.744Z,94154.00
2023-04-02T01:29:51.773Z,94154.00
2023-04-02T01:30:51.827Z,94154.00
2023-04-02T01:31:51.903Z,94154.00
2023-04-02T01:32:51.892Z,94152.00
2023-04-02T01:33:51.921Z,94150.00
2023-04-02T01:34:51.974Z,94154.00
2023-04-02T01:35:52.051Z,94154.00
2023-04-02T01:36:52.138Z,94154.00
2023-04-02T01:37:52.117Z,94152.00
2023-04-02T01:38:52.168Z,94150.00
2023-04-02T01:39:52.208Z,94154.00
2023-04-02T01:40:52.211Z,94156.00
2023-04-02T01:41:52.332Z,94158.00
2023-04-02T01:42:52.341Z,94158.00
2023-04-02T01:43:52.403Z,94160.00
2023-04-02T01:44:52.422Z,94162.00
2023-04-02T01:45:52.455Z,94164.00
2023-04-02T01:46:52.589Z,94162.00
2023-04-02T01:47:52.535Z,94164.00
2023-04-02T01:48:52.606Z,94164.00
2023-04-02T01:49:52.649Z,94166.00
2023-04-02T01:50:52.740Z,94166.00
2023-04-02T01:51:52.762Z,94168.00
2023-04-02T01:52:52.829Z,94166.00
2023-04-02T01:53:52.862Z,94166.00
2023-04-02T01:54:52.893Z,94168.00
2023-04-02T01:55:53.051Z,94172.00
2023-04-02T01:56:53.098Z,94170.00
2023-04-02T01:57:53.011Z,94170.00
2023-04-02T01:58:53.090Z,94172.00
2023-04-02T01:59:53.131Z,94170.00
2023-04-02T02:00:53.295Z,94174.00
2023-04-02T02:01:53.320Z,94170.00
2023-04-02T02:02:53.318Z,94172.00
2023-04-02T02:03:53.383Z,94172.00
2023-04-02T02:04:53.466Z,94174.00
2023-04-02T02:05:53.473Z,94176.00
2023-04-02T02:06:53.551Z,94178.00
2023-04-02T02:07:53.595Z,94180.00
2023-04-02T02:08:53.619Z,94182.00
2023-04-02T02:09:53.698Z,94186.00
2023-04-02T02:10:53.715Z,94184.00
2023-04-02T02:11:53.836Z,94186.00
2023-04-02T02:12:53.871Z,94186.00
2023-04-02T02:13:53.943Z,94184.00
2023-04-02T02:14:53.960Z,94189.00
2023-04-02T02:15:54.122Z,94186.00
2023-04-02T02:16:54.029Z,94191.00
2023-04-02T02:17:54.148Z,94191.00
2023-04-02T02:18:54.161Z,94193.00
2023-04-02T02:19:54.224Z,94191.00
2023-04-02T02:20:54.229Z,94195.00
2023-04-02T02:21:54.311Z,94193.00
2023-04-02T02:22:54.352Z,94189.00
2023-04-02T02:23:54.416Z,94189.00
2023-04-02T02:24:54.466Z,94191.00
2023-04-02T02:25:54.532Z,94189.00
2023-04-02T02:26:54.586Z,94195.00
2023-04-02T02:27:54.656Z,94193.00
2023-04-02T02:28:54.654Z,94197.00
2023-04-02T02:29:54.744Z,94199.00
2023-04-02T02:30:54.817Z,94201.00
2023-04-02T02:31:54.905Z,94201.00
2023-04-02T02:32:54.956Z,94201.00
2023-04-02T02:33:55.003Z,94201.00
2023-04-02T02:34:55.063Z,94203.00
2023-04-02T02:35:55.103Z,94205.00
2023-04-02T02:36:55.159Z,94205.00
2023-04-02T02:37:55.204Z,94205.00
2023-04-02T02:38:55.256Z,94207.00
2023-04-02T02:39:55.316Z,94213.00
2023-04-02T02:40:55.357Z,94211.00
2023-04-02T02:41:55.406Z,94215.00
2023-04-02T02:42:55.452Z,94213.00
2023-04-02T02:43:55.514Z,94213.00
2023-04-02T02:44:55.582Z,94213.00
2023-04-02T02:45:55.670Z,94213.00
2023-04-02T02:46:55.708Z,94217.00
2023-04-02T02:47:55.783Z,94217.00
2023-04-02T02:48:55.778Z,94217.00
2023-04-02T02:49:56.711Z,94221.00
2023-04-02T02:50:55.907Z,94219.00
2023-04-02T02:51:55.936Z,94221.00
2023-04-02T02:52:56.033Z,94223.00
2023-04-02T02:53:56.053Z,94225.00
2023-04-02T02:54:56.099Z,94225.00
2023-04-02T02:55:56.167Z,94223.00
2023-04-02T02:56:56.230Z,94227.00
2023-04-02T02:57:56.288Z,94229.00
2023-04-02T02:58:56.334Z,94231.00
2023-04-02T02:59:56.399Z,94227.00
2023-04-02T03:00:56.521Z,94231.00
2023-04-02T03:01:56.492Z,94231.00
2023-04-02T03:02:56.767Z,94233.00
2023-04-02T03:03:56.743Z,94234.00
2023-04-02T03:04:56.661Z,94233.00
2023-04-02T03:05:56.737Z,94234.00
2023-04-02T03:06:56.783Z,94234.00
2023-04-02T03:07:56.868Z,94233.00
2023-04-02T03:08:56.903Z,94233.00
2023-04-02T03:09:56.960Z,94236.00
2023-04-02T03:10:57.008Z,94236.00
2023-04-02T03:11:57.092Z,94236.00
2023-04-02T03:12:57.175Z,94238.00
2023-04-02T03:13:57.186Z,94240.00
2023-04-02T03:14:57.268Z,94242.00
2023-04-02T03:15:57.309Z,94242.00
2023-04-02T03:16:57.333Z,94244.00
2023-04-02T03:17:57.397Z,94244.00
2023-04-02T03:18:57.458Z,94246.00
2023-04-02T03:19:57.546Z,94244.00
2023-04-02T03:20:57.597Z,94246.00
2023-04-02T03:21:57.685Z,94246.00
2023-04-02T03:22:57.706Z,94248.00
2023-04-02T03:23:57.753Z,94250.00
2023-04-02T03:24:57.860Z,94248.00
2023-04-02T03:25:57.958Z,94248.00
2023-04-02T03:26:57.990Z,94250.00
2023-04-02T03:27:58.000Z,94252.00
2023-04-02T03:28:58.097Z,94256.00
2023-04-02T03:29:58.148Z,94258.00
2023-04-02T03:30:58.225Z,94260.00
2023-04-02T03:31:58.225Z,94260.00
2023-04-02T03:32:58.392Z,94260.00
2023-04-02T03:33:58.371Z,94260.00
2023-04-02T03:34:58.465Z,94258.00
2023-04-02T03:35:58.513Z,94262.00
2023-04-02T03:36:58.567Z,94260.00
2023-04-02T03:37:58.623Z,94258.00
2023-04-02T03:38:58.678Z,94260.00
2023-04-02T03:39:58.756Z,94264.00
2023-04-02T03:40:58.857Z,94266.00
2023-04-02T03:41:58.851Z,94266.00
2023-04-02T03:42:58.956Z,94268.00
2023-04-02T03:43:58.982Z,94264.00
2023-04-02T03:44:59.087Z,94268.00
2023-04-02T03:45:59.137Z,94264.00
2023-04-02T03:46:59.193Z,94270.00
2023-04-02T03:47:59.269Z,94268.00
2023-04-02T03:48:59.300Z,94270.00
2023-04-02T03:49:59.404Z,94272.00
2023-04-02T03:50:59.442Z,94272.00
2023-04-02T03:51:59.500Z,94273.00
2023-04-02T03:52:59.562Z,94273.00
2023-04-02T03:53:59.608Z,94273.00
2023-04-02T03:54:59.712Z,94273.00
2023-04-02T03:55:59.763Z,94273.00
2023-04-02T03:56:59.828Z,94272.00
2023-04-02T03:57:59.874Z,94272.00
2023-04-02T03:58:59.944Z,94272.00
2023-04-02T04:00:00.020Z,94272.00
2023-04-02T04:01:00.076Z,94272.00
2023-04-02T04:02:00.150Z,94273.00
2023-04-02T04:03:00.263Z,94273.00
2023-04-02T04:04:00.255Z,94275.00
2023-04-02T04:05:00.341Z,94273.00
2023-04-02T04:06:00.369Z,94275.00
2023-04-02T04:07:00.403Z,94277.00
2023-04-02T04:08:00.441Z,94279.00
2023-04-02T04:09:00.539Z,94275.00
2023-04-02T04:10:00.633Z,94277.00
2023-04-02T04:11:00.674Z,94279.00
2023-04-02T04:12:00.736Z,94283.00
2023-04-02T04:13:00.798Z,94283.00
2023-04-02T04:14:00.870Z,94287.00
2023-04-02T04:15:00.906Z,94287.00
2023-04-02T04:16:00.987Z,94285.00
2023-04-02T04:17:01.009Z,94287.00
2023-04-02T04:18:01.129Z,94289.00
2023-04-02T04:19:01.093Z,94291.00
2023-04-02T04:20:01.177Z,94293.00
2023-04-02T04:21:01.232Z,94293.00
2023-04-02T04:22:01.370Z,94295.00
2023-04-02T04:23:01.377Z,94297.00
2023-04-02T04:24:01.410Z,94299.00
2023-04-02T04:25:01.444Z,94301.00
2023-04-02T04:26:01.527Z,94305.00
2023-04-02T04:27:01.591Z,94307.00
2023-04-02T04:28:01.647Z,94309.00
2023-04-02T04:29:01.742Z,94311.00
2023-04-02T04:30:01.755Z,94309.00
2023-04-02T04:31:01.844Z,94311.00
2023-04-02T04:32:01.971Z,94309.00
2023-04-02T04:33:02.086Z,94311.00
2023-04-02T04:34:02.022Z,94311.00
2023-04-02T04:35:02.169Z,94313.00
2023-04-02T04:36:02.220Z,94315.00
2023-04-02T04:37:02.180Z,94317.00
2023-04-02T04:38:02.260Z,94319.00
2023-04-02T04:39:02.369Z,94319.00
2023-04-02T04:40:02.389Z,94319.00
2023-04-02T04:41:02.410Z,94322.00
2023-04-02T04:42:02.493Z,94325.00
2023-04-02T04:43:02.599Z,94325.00
2023-04-02T04:44:02.643Z,94327.00
2023-04-02T04:45:02.699Z,94327.00
2023-04-02T04:46:02.895Z,94328.00
2023-04-02T04:47:02.801Z,94328.00
2023-04-02T04:48:02.921Z,94330.00
2023-04-02T04:49:02.956Z,94330.00
2023-04-02T04:50:02.981Z,94330.00
2023-04-02T04:51:03.106Z,94332.00
2023-04-02T04:52:03.102Z,94330.00
2023-04-02T04:53:03.177Z,94334.00
2023-04-02T04:54:03.259Z,94332.00
2023-04-02T04:55:03.275Z,94330.00
2023-04-02T04:56:15.969Z,94336.00
2023-04-02T04:57:04.347Z,94336.00
2023-04-02T04:58:03.310Z,94338.00
2023-04-02T04:59:03.345Z,94340.00
2023-04-02T05:00:03.332Z,94340.00
2023-04-02T05:01:03.378Z,94342.00
2023-04-02T05:02:03.319Z,94344.00
2023-04-02T05:03:03.338Z,94346.00
2023-04-02T05:04:03.293Z,94346.00
2023-04-02T05:05:03.323Z,94346.00
2023-04-02T05:06:03.433Z,94348.00
2023-04-02T05:07:03.475Z,94348.00
2023-04-02T05:08:03.522Z,94346.00
2023-04-02T05:09:03.551Z,94350.00
2023-04-02T05:10:03.633Z,94352.00
2023-04-02T05:11:03.680Z,94350.00
2023-04-02T05:12:03.723Z,94348.00
2023-04-02T05:13:03.787Z,94348.00
2023-04-02T05:14:03.868Z,94348.00
2023-04-02T05:15:03.930Z,94346.00
2023-04-02T05:16:03.949Z,94346.00
2023-04-02T05:17:04.028Z,94346.00
2023-04-02T05:18:04.211Z,94346.00
2023-04-02T05:19:04.100Z,94346.00
2023-04-02T05:20:04.186Z,94348.00
2023-04-02T05:21:04.232Z,94352.00
2023-04-02T05:22:04.279Z,94350.00
2023-04-02T05:23:04.338Z,94352.00
2023-04-02T05:24:04.445Z,94352.00
2023-04-02T05:25:04.425Z,94350.00
2023-04-02T05:26:04.485Z,94354.00
2023-04-02T05:27:04.635Z,94354.00
2023-04-02T05:28:04.543Z,94356.00
2023-04-02T05:29:04.582Z,94354.00
2023-04-02T05:30:04.657Z,94358.00
2023-04-02T05:31:04.779Z,94356.00
2023-04-02T05:32:04.788Z,94358.00
2023-04-02T05:33:04.917Z,94362.00
2023-04-02T05:34:04.890Z,94360.00
2023-04-02T05:35:05.000Z,94364.00
2023-04-02T05:36:05.009Z,94364.00
2023-04-02T05:37:06.973Z,94366.00
2023-04-02T05:38:05.181Z,94367.00
2023-04-02T05:39:05.184Z,94367.00
2023-04-02T05:40:05.230Z,94369.00
2023-04-02T05:41:05.343Z,94371.00
2023-04-02T05:42:05.370Z,94373.00
2023-04-02T05:43:05.449Z,94373.00
2023-04-02T05:44:05.511Z,94377.00
2023-04-02T05:45:05.511Z,94379.00
2023-04-02T05:46:05.629Z,94377.00
2023-04-02T05:47:05.683Z,94379.00
2023-04-02T05:48:05.802Z,94379.00
2023-04-02T05:49:05.754Z,94381.00
2023-04-02T05:50:05.884Z,94381.00
2023-04-02T05:51:05.882Z,94385.00
2023-04-02T05:52:05.955Z,94387.00
2023-04-02T05:53:06.040Z,94389.00
2023-04-02T05:54:06.082Z,94389.00
2023-04-02T05:55:06.144Z,94391.00
2023-04-02T05:56:06.196Z,94389.00
2023-04-02T05:57:06.294Z,94391.00
2023-04-02T05:58:33.686Z,94393.00
2023-04-02T05:59:07.302Z,94393.00
2023-04-02T06:00:06.278Z,94395.00
2023-04-02T06:01:06.292Z,94395.00
2023-04-02T06:02:06.346Z,94397.00
2023-04-02T06:03:06.301Z,94397.00
2023-04-02T06:04:06.343Z,94397.00
2023-04-02T06:05:06.237Z,94397.00
2023-04-02T06:06:06.269Z,94397.00
2023-04-02T06:07:06.269Z,94395.00
2023-04-02T06:08:06.342Z,94397.00
2023-04-02T06:09:06.480Z,94395.00
2023-04-02T06:10:06.469Z,94407.00
2023-04-02T06:11:06.511Z,94393.00
2023-04-02T06:12:06.610Z,94405.00
2023-04-02T06:13:06.631Z,94405.00
2023-04-02T06:14:06.744Z,94397.00
2023-04-02T06:15:06.769Z,94397.00
2023-04-02T06:16:06.786Z,94397.00
2023-04-02T06:17:06.808Z,94405.00
2023-04-02T06:18:06.891Z,94405.00
2023-04-02T06:19:06.919Z,94405.00
2023-04-02T06:20:06.951Z,94411.00
2023-04-02T06:21:06.984Z,94409.00
2023-04-02T06:22:07.047Z,94411.00
2023-04-02T06:23:07.108Z,94412.00
2023-04-02T06:24:07.157Z,94412.00
2023-04-02T06:25:07.193Z,94412.00
2023-04-02T06:26:07.244Z,94411.00
2023-04-02T06:27:07.286Z,94414.00
2023-04-02T06:28:07.372Z,94411.00
2023-04-02T06:29:07.382Z,94412.00
2023-04-02T06:30:07.457Z,94416.00
2023-04-02T06:31:07.577Z,94414.00
2023-04-02T06:32:07.575Z,94414.00
2023-04-02T06:33:07.718Z,94416.00
2023-04-02T06:34:07.721Z,94416.00
2023-04-02T06:35:07.754Z,94418.00
2023-04-02T06:36:07.906Z,94422.00
2023-04-02T06:37:07.870Z,94422.00
2023-04-02T06:38:07.917Z,94422.00
2023-04-02T06:39:07.985Z,94424.00
2023-04-02T06:40:08.040Z,94422.00
2023-04-02T06:41:08.100Z,94422.00
2023-04-02T06:42:08.153Z,94420.00
2023-04-02T06:43:08.220Z,94422.00
2023-04-02T06:44:08.277Z,94426.00
2023-04-02T06:45:08.334Z,94428.00
2023-04-02T06:46:08.369Z,94428.00
2023-04-02T06:47:08.456Z,94428.00
2023-04-02T06:48:08.576Z,94430.00
2023-04-02T06:49:08.568Z,94428.00
2023-04-02T06:50:08.568Z,94428.00
2023-04-02T06:51:08.638Z,94430.00
2023-04-02T06:52:08.742Z,94432.00
2023-04-02T06:53:08.803Z,94430.00
2023-04-02T06:54:08.810Z,94428.00
2023-04-02T06:55:08.915Z,94428.00
2023-04-02T06:56:08.912Z,94428.00
2023-04-02T06:57:09.159Z,94428.00
2023-04-02T06:58:09.038Z,94428.00
2023-04-02T06:59:09.094Z,94430.00
2023-04-02T07:00:09.157Z,94428.00
2023-04-02T07:01:09.196Z,94430.00
2023-04-02T07:02:09.233Z,94428.00
2023-04-02T07:03:09.310Z,94430.00
2023-04-02T07:04:09.332Z,94428.00
2023-04-02T07:05:09.503Z,94428.00
2023-04-02T07:06:09.447Z,94426.00
2023-04-02T07:07:09.442Z,94428.00
2023-04-02T07:08:09.506Z,94426.00
2023-04-02T07:09:09.570Z,94426.00
2023-04-02T07:10:09.622Z,94432.00
2023-04-02T07:11:09.687Z,94430.00
2023-04-02T07:12:09.751Z,94432.00
2023-04-02T07:13:09.750Z,94428.00
2023-04-02T07:14:09.803Z,94428.00
2023-04-02T07:15:09.885Z,94428.00
2023-04-02T07:16:09.938Z,94430.00
2023-04-02T07:17:09.979Z,94428.00
2023-04-02T07:18:10.054Z,94428.00
2023-04-02T07:19:10.096Z,94428.00
2023-04-02T07:20:10.099Z,94428.00
2023-04-02T07:21:10.151Z,94426.00
2023-04-02T07:22:10.226Z,94426.00
2023-04-02T07:23:10.222Z,94424.00
2023-04-02T07:24:10.274Z,94422.00
2023-04-02T07:25:10.339Z,94424.00
2023-04-02T07:26:10.397Z,94424.00
2023-04-02T07:27:10.807Z,94424.00
2023-04-02T07:28:10.478Z,94422.00
2023-04-02T07:29:10.514Z,94422.00
2023-04-02T07:30:10.566Z,94426.00
2023-04-02T07:31:10.688Z,94422.00
2023-04-02T07:32:10.660Z,94424.00
2023-04-02T07:33:10.736Z,94426.00
2023-04-02T07:34:10.705Z,94426.00
2023-04-02T07:35:10.785Z,94426.00
2023-04-02T07:36:10.840Z,94424.00
2023-04-02T07:37:10.894Z,94424.00
2023-04-02T07:38:10.938Z,94422.00
2023-04-02T07:39:10.962Z,94426.00
2023-04-02T07:40:11.009Z,94422.00
2023-04-02T07:41:11.044Z,94428.00
2023-04-02T07:42:11.064Z,94428.00
2023-04-02T07:43:11.121Z,94428.00
2023-04-02T07:44:11.138Z,94430.00
2023-04-02T07:45:11.185Z,94432.00
2023-04-02T07:46:11.298Z,94436.00
2023-04-02T07:47:11.310Z,94434.00
2023-04-02T07:48:11.313Z,94436.00
2023-04-02T07:49:11.373Z,94438.00
2023-04-02T07:50:11.431Z,94438.00
2023-04-02T07:51:11.434Z,94440.00
2023-04-02T07:52:11.503Z,94442.00
2023-04-02T07:53:11.506Z,94442.00
2023-04-02T07:54:11.554Z,94442.00
2023-04-02T07:55:11.570Z,94442.00
2023-04-02T07:56:11.621Z,94444.00
2023-04-02T07:57:11.646Z,94442.00
2023-04-02T07:58:11.627Z,94442.00
2023-04-02T07:59:11.755Z,94442.00
2023-04-02T08:00:11.717Z,94442.00
2023-04-02T08:01:11.758Z,94440.00
2023-04-02T08:02:11.846Z,94442.00
2023-04-02T08:03:11.883Z,94442.00
2023-04-02T08:04:11.872Z,94442.00
2023-04-02T08:05:11.887Z,94442.00
2023-04-02T08:06:11.974Z,94442.00
2023-04-02T08:07:11.955Z,94444.00
2023-04-02T08:08:12.006Z,94442.00
2023-04-02T08:09:12.069Z,94442.00
2023-04-02T08:10:12.091Z,94446.00
2023-04-02T08:11:12.132Z,94448.00
2023-04-02T08:12:12.143Z,94444.00
2023-04-02T08:13:12.211Z,94444.00
2023-04-02T08:14:12.208Z,94446.00
2023-04-02T08:15:12.266Z,94448.00
2023-04-02T08:16:12.292Z,94448.00
2023-04-02T08:17:12.341Z,94448.00
2023-04-02T08:18:12.342Z,94448.00
2023-04-02T08:19:12.393Z,94448.00
2023-04-02T08:20:12.419Z,94448.00
2023-04-02T08:21:13.768Z,94448.00
2023-04-02T08:22:12.415Z,94448.00
2023-04-02T08:23:12.430Z,94450.00
2023-04-02T08:24:12.446Z,94454.00
2023-04-02T08:25:12.393Z,94454.00
2023-04-02T08:26:12.392Z,94452.00
2023-04-02T08:27:12.410Z,94452.00
2023-04-02T08:28:12.394Z,94454.00
2023-04-02T08:29:12.348Z,94454.00
2023-04-02T08:30:12.363Z,94452.00
2023-04-02T08:31:12.418Z,94454.00
2023-04-02T08:32:12.337Z,94454.00
2023-04-02T08:33:12.404Z,94452.00
2023-04-02T08:34:12.343Z,94452.00
2023-04-02T08:35:12.362Z,94452.00
2023-04-02T08:36:12.420Z,94454.00
2023-04-02T08:37:12.311Z,94452.00
2023-04-02T08:38:12.279Z,94452.00
2023-04-02T08:39:12.325Z,94450.00
2023-04-02T08:40:12.341Z,94446.00
2023-04-02T08:41:12.288Z,94448.00
2023-04-02T08:42:12.305Z,94448.00
2023-04-02T08:43:12.268Z,94448.00
2023-04-02T08:44:12.249Z,94446.00
2023-04-02T08:45:38.299Z,94448.00
2023-04-02T08:46:13.289Z,94442.00
2023-04-02T08:47:12.274Z,94444.00
2023-04-02T08:48:12.242Z,94442.00
2023-04-02T08:49:12.246Z,94440.00
2023-04-02T08:50:12.260Z,94442.00
2023-04-02T08:51:12.211Z,94440.00
2023-04-02T08:52:12.205Z,94442.00
2023-04-02T08:53:12.207Z,94440.00
2023-04-02T08:54:12.196Z,94442.00
2023-04-02T08:55:12.183Z,94438.00
2023-04-02T08:56:12.202Z,94436.00
2023-04-02T08:57:12.236Z,94436.00
2023-04-02T08:58:12.147Z,94438.00
2023-04-02T08:59:12.146Z,94436.00
2023-04-02T09:00:12.159Z,94434.00
2023-04-02T09:01:12.197Z,94434.00
2023-04-02T09:02:12.170Z,94438.00
2023-04-02T09:03:12.152Z,94436.00
2023-04-02T09:04:12.103Z,94436.00
2023-04-02T09:05:12.172Z,94434.00
2023-04-02T09:06:14.285Z,94432.00
2023-04-02T09:07:12.103Z,94436.00
2023-04-02T09:08:12.111Z,94436.00
2023-04-02T09:09:12.123Z,94432.00
2023-04-02T09:10:12.083Z,94432.00
2023-04-02T09:11:12.094Z,94434.00
2023-04-02T09:12:12.103Z,94432.00
2023-04-02T09:13:12.041Z,94430.00
2023-04-02T09:14:12.060Z,94428.00
2023-04-02T09:15:12.066Z,94426.00
2023-04-02T09:16:12.106Z,94428.00
2023-04-02T09:17:12.064Z,94430.00
2023-04-02T09:18:12.063Z,94428.00
2023-04-02T09:19:12.000Z,94430.00
2023-04-02T09:20:12.003Z,94430.00
2023-04-02T09:21:11.993Z,94430.00
2023-04-02T09:22:11.988Z,94428.00
2023-04-02T09:23:12.012Z,94430.00
2023-04-02T09:24:11.964Z,94430.00
2023-04-02T09:25:11.984Z,94426.00
2023-04-02T09:26:11.992Z,94426.00
2023-04-02T09:27:11.995Z,94424.00
2023-04-02T09:28:11.946Z,94426.00
2023-04-02T09:29:11.954Z,94428.00
2023-04-02T09:30:11.976Z,94426.00
2023-04-02T09:31:11.983Z,94428.00
2023-04-02T09:32:11.927Z,94432.00
2023-04-02T09:33:11.976Z,94434.00
2023-04-02T09:34:11.944Z,94432.00
2023-04-02T09:35:22.420Z,94432.00
2023-04-02T09:36:14.498Z,94430.00
2023-04-02T09:37:11.870Z,94430.00
2023-04-02T09:38:11.918Z,94430.00
2023-04-02T09:39:11.873Z,94428.00
2023-04-02T09:40:11.947Z,94426.00
2023-04-02T09:41:11.907Z,94424.00
2023-04-02T09:42:11.836Z,94426.00
2023-04-02T09:43:11.851Z,94426.00
2023-04-02T09:44:11.839Z,94424.00
2023-04-02T09:45:11.837Z,94424.00
2023-04-02T09:46:11.828Z,94424.00
2023-04-02T09:47:11.829Z,94424.00
2023-04-02T09:48:11.855Z,94426.00
2023-04-02T09:49:11.848Z,94424.00
2023-04-02T09:50:11.798Z,94422.00
2023-04-02T09:51:11.808Z,94420.00
2023-04-02T09:52:11.757Z,94422.00
2023-04-02T09:53:11.766Z,94422.00
2023-04-02T09:54:11.761Z,94422.00
2023-04-02T09:55:11.734Z,94428.00
2023-04-02T09:56:11.755Z,94430.00
2023-04-02T09:57:11.776Z,94428.00
2023-04-02T09:58:11.713Z,94430.00
2023-04-02T09:59:11.716Z,94432.00
2023-04-02T10:00:25.243Z,94434.00
2023-04-02T10:01:12.760Z,94428.00
2023-04-02T10:02:11.678Z,94434.00
2023-04-02T10:03:11.731Z,94434.00
2023-04-02T10:04:11.694Z,94434.00
2023-04-02T10:05:11.682Z,94438.00
2023-04-02T10:06:11.691Z,94438.00
2023-04-02T10:07:11.685Z,94436.00
2023-04-02T10:08:11.672Z,94438.00
2023-04-02T10:09:11.659Z,94436.00
2023-04-02T10:10:11.643Z,94438.00
2023-04-02T10:11:11.629Z,94438.00
2023-04-02T10:12:11.646Z,94438.00
2023-04-02T10:13:11.660Z,94438.00
2023-04-02T10:14:11.637Z,94436.00
2023-04-02T10:15:11.611Z,94434.00
2023-04-02T10:16:11.668Z,94432.00
2023-04-02T10:17:11.648Z,94432.00
2023-04-02T10:18:11.631Z,94430.00
2023-04-02T10:19:11.665Z,94430.00
2023-04-02T10:20:11.641Z,94432.00
2023-04-02T10:21:11.718Z,94428.00
2023-04-02T10:22:11.744Z,94432.00
2023-04-02T10:23:11.768Z,94430.00
2023-04-02T10:24:11.781Z,94430.00
2023-04-02T10:25:11.851Z,94432.00
2023-04-02T10:26:11.855Z,94428.00
2023-04-02T10:27:11.889Z,94428.00
2023-04-02T10:28:11.896Z,94432.00
2023-04-02T10:29:11.906Z,94432.00
2023-04-02T10:30:11.945Z,94430.00
2023-04-02T10:31:12.010Z,94432.00
2023-04-02T10:32:11.991Z,94430.00
2023-04-02T10:33:12.091Z,94434.00
2023-04-02T10:34:12.056Z,94434.00
2023-04-02T10:35:12.089Z,94434.00
2023-04-02T10:36:12.143Z,94436.00
2023-04-02T10:37:12.144Z,94432.00
2023-04-02T10:38:12.152Z,94432.00
2023-04-02T10:39:12.193Z,94436.00
2023-04-02T10:40:12.207Z,94438.00
2023-04-02T10:41:12.256Z,94436.00
2023-04-02T10:42:12.215Z,94436.00
2023-04-02T10:43:12.254Z,94436.00
2023-04-02T10:44:19.706Z,94438.00
2023-04-02T10:45:13.285Z,94434.00
2023-04-02T10:46:12.307Z,94438.00
2023-04-02T10:47:12.301Z,94436.00
2023-04-02T10:48:12.294Z,94436.00
2023-04-02T10:49:12.265Z,94438.00
2023-04-02T10:50:12.226Z,94438.00
2023-04-02T10:51:12.213Z,94438.00
2023-04-02T10:52:12.201Z,94440.00
2023-04-02T10:53:12.215Z,94438.00
2023-04-02T10:54:12.187Z,94440.00
2023-04-02T10:55:12.197Z,94438.00
2023-04-02T10:56:12.181Z,94440.00
2023-04-02T10:57:12.248Z,94446.00
2023-04-02T10:58:12.158Z,94444.00
2023-04-02T10:59:12.173Z,94440.00
2023-04-02T11:00:12.448Z,94440.00
2023-04-02T11:01:12.225Z,94442.00
2023-04-02T11:02:12.194Z,94442.00
2023-04-02T11:03:12.226Z,94444.00
2023-04-02T11:04:14.155Z,94442.00
2023-04-02T11:05:12.155Z,94442.00
2023-04-02T11:06:12.219Z,94446.00
2023-04-02T11:07:14.826Z,94444.00
2023-04-02T11:08:12.144Z,94442.00
2023-04-02T11:09:12.083Z,94446.00
2023-04-02T11:10:12.088Z,94444.00
2023-04-02T11:11:12.157Z,94444.00
2023-04-02T11:12:12.133Z,94444.00
2023-04-02T11:13:12.045Z,94446.00
2023-04-02T11:14:12.042Z,94446.00
2023-04-02T11:15:12.066Z,94448.00
2023-04-02T11:16:12.112Z,94446.00
2023-04-02T11:17:12.044Z,94446.00
2023-04-02T11:18:12.039Z,94448.00
2023-04-02T11:19:12.008Z,94448.00
2023-04-02T11:20:11.989Z,94454.00
2023-04-02T11:21:12.020Z,94456.00
2023-04-02T11:22:12.009Z,94456.00
2023-04-02T11:23:11.971Z,94458.00
2023-04-02T11:24:11.994Z,94456.00
2023-04-02T11:25:11.982Z,94461.00
2023-04-02T11:26:12.002Z,94458.00
2023-04-02T11:27:12.179Z,94459.00
2023-04-02T11:28:11.981Z,94461.00
2023-04-02T11:29:11.965Z,94463.00
2023-04-02T11:30:11.926Z,94463.00
2023-04-02T11:31:11.937Z,94467.00
2023-04-02T11:32:11.912Z,94469.00
2023-04-02T11:33:11.914Z,94467.00
2023-04-02T11:34:11.918Z,94469.00
2023-04-02T11:35:11.879Z,94467.00
2023-04-02T11:36:11.906Z,94471.00
2023-04-02T11:37:11.888Z,94469.00
2023-04-02T11:38:11.927Z,94473.00
2023-04-02T11:39:17.490Z,94473.00
2023-04-02T11:40:12.909Z,94471.00
2023-04-02T11:41:11.888Z,94473.00
2023-04-02T11:42:11.933Z,94477.00
2023-04-02T11:43:11.847Z,94475.00
2023-04-02T11:44:11.816Z,94477.00
2023-04-02T11:45:11.801Z,94479.00